Date,TemperatureHighF,TemperatureAvgF,TemperatureLowF,DewpointHighF,DewpointAvgF,DewpointLowF,HumidityHigh,HumidityAvg,HumidityLow,PressureMaxIn,PressureMinIn,WindSpeedMaxMPH,WindSpeedAvgMPH,GustSpeedMaxMPH,PrecipitationSumIn
2013-1-1,36,30,23,35,28,20,99,95,88,30.00,29.80,6,1,10,0.01
2013-1-2,40,28,22,26,18,13,92,70,44,30.02,29.93,8,1,11,0.01
2013-1-3,45,31,19,30,22,14,88,69,46,30.18,30.00,8,2,10,0.00
2013-1-4,50,40,29,28,22,17,90,52,31,30.22,30.11,9,3,11,0.00
2013-1-5,41,37,33,32,30,29,85,78,69,30.00,29.94,13,5,13,0.00
2013-1-6,49,36,25,30,22,12,90,60,25,30.11,29.99,13,5,13,0.00
2013-1-7,57,39,28,28,22,17,70,53,26,30.11,29.89,14,4,14,0.00
2013-1-8,62,44,32,47,34,21,99,69,44,29.99,29.83,13,3,13,0.24
2013-1-9,52,48,45,47,44,38,99,85,64,30.12,29.99,28,6,28,0.04
2013-1-10,54,48,43,52,46,38,99,94,67,30.00,29.62,26,9,26,0.38
2013-1-11,67,55,45,46,44,42,97,71,44,29.68,29.55,22,7,22,0.00
2013-1-12,56,42,28,50,36,24,92,80,48,29.74,29.55,19,4,19,0.25
2013-1-13,28,21,14,24,15,8,86,78,65,30.09,29.71,0,0,0,0.00
2013-1-14,36,22,12,14,9,4,79,59,31,30.20,30.05,11,1,11,0.01
2013-1-15,35,24,17,18,12,7,81,63,37,30.07,29.90,13,4,13,0.00
2013-1-16,44,28,15,23,14,10,84,57,30,29.95,29.85,14,3,14,0.00
2013-1-17,50,36,26,32,23,13,79,61,43,30.24,29.95,14,4,14,0.00
2013-1-18,59,42,27,30,24,18,85,55,24,30.26,29.98,16,5,16,0.00
2013-1-19,64,50,38,36,32,25,74,52,32,29.98,29.85,17,6,17,0.00
2013-1-20,62,47,29,35,26,15,75,45,26,30.03,29.90,16,5,16,0.00
2013-1-21,42,28,20,17,11,3,65,50,24,30.14,30.02,12,4,13,0.00
2013-1-22,49,33,20,25,18,11,71,55,36,30.08,29.99,12,6,12,0.00
2013-1-23,62,45,31,44,34,20,83,67,50,30.04,29.92,14,4,14,0.00
2013-1-24,42,35,29,30,18,10,72,50,35,30.09,29.89,17,8,17,0.00
2013-1-25,52,36,27,34,28,21,97,74,45,30.02,29.87,11,3,11,0.00
2013-1-26,62,46,32,28,22,15,76,43,19,30.04,29.91,16,5,16,0.00
2013-1-27,59,53,45,56,48,29,92,83,51,29.92,29.73,19,8,19,0.00
2013-1-28,73,65,58,61,60,55,92,82,63,29.78,29.63,22,9,22,0.00
2013-1-29,68,59,47,63,56,46,99,91,80,29.64,29.27,21,7,21,2.35
2013-1-30,47,31,19,46,27,14,99,83,66,29.82,29.30,30,12,30,0.00
2013-1-31,48,28,16,28,18,2,89,66,42,30.17,29.77,23,5,23,0.00